sensor_id;sensor_type;location;lat;lon;timestamp;pressure;altitude;pressure_sealevel;temperature;humidity
17054;BME280;8643;48.824;11.422;2023-04-23T00:00:12;96311.91;;;11.80;100.00
17054;BME280;8643;48.824;11.422;2023-04-23T00:02:43;96317.03;;;11.66;100.00
17054;BME280;8643;48.824;11.422;2023-04-23T00:05:14;96311.97;;;11.52;100.00
17054;BME280;8643;48.824;11.422;2023-04-23T00:07:44;96312.06;;;11.40;100.00
17054;BME280;8643;48.824;11.422;2023-04-23T00:10:13;96307.19;;;11.33;100.00
17054;BME280;8643;48.824;11.422;2023-04-23T00:12:43;96309.25;;;11.36;100.00
17054;BME280;8643;48.824;11.422;2023-04-23T00:15:13;96309.81;;;11.29;100.00
17054;BME280;8643;48.824;11.422;2023-04-23T00:17:42;96301.53;;;11.26;100.00
17054;BME280;8643;48.824;11.422;2023-04-23T00:20:11;96297.81;;;11.18;100.00
17054;BME280;8643;48.824;11.422;2023-04-23T00:22:40;96288.38;;;11.31;100.00
17054;BME280;8643;48.824;11.422;2023-04-23T00:25:10;96287.47;;;11.43;100.00
17054;BME280;8643;48.824;11.422;2023-04-23T00:27:39;96288.13;;;11.52;100.00
17054;BME280;8643;48.824;11.422;2023-04-23T00:30:08;96293.41;;;11.45;100.00
17054;BME280;8643;48.824;11.422;2023-04-23T00:32:37;96285.25;;;11.49;100.00
17054;BME280;8643;48.824;11.422;2023-04-23T00:35:07;96287.91;;;11.45;100.00
17054;BME280;8643;48.824;11.422;2023-04-23T00:37:35;96289.59;;;11.50;100.00
17054;BME280;8643;48.824;11.422;2023-04-23T00:40:05;96295.63;;;11.55;100.00
17054;BME280;8643;48.824;11.422;2023-04-23T00:42:37;96298.72;;;11.54;100.00
17054;BME280;8643;48.824;11.422;2023-04-23T00:45:08;96292.69;;;11.48;100.00
17054;BME280;8643;48.824;11.422;2023-04-23T00:47:40;96297.84;;;11.50;100.00
17054;BME280;8643;48.824;11.422;2023-04-23T00:50:09;96287.06;;;11.57;100.00
17054;BME280;8643;48.824;11.422;2023-04-23T00:52:38;96288.91;;;11.69;100.00
17054;BME280;8643;48.824;11.422;2023-04-23T00:55:07;96295.25;;;11.73;100.00
17054;BME280;8643;48.824;11.422;2023-04-23T00:57:38;96297.13;;;11.69;100.00
17054;BME280;8643;48.824;11.422;2023-04-23T01:00:08;96298.19;;;11.64;100.00
17054;BME280;8643;48.824;11.422;2023-04-23T01:02:37;96295.28;;;11.57;100.00
17054;BME280;8643;48.824;11.422;2023-04-23T01:05:07;96298.97;;;11.65;100.00
17054;BME280;8643;48.824;11.422;2023-04-23T01:07:37;96303.59;;;11.61;100.00
17054;BME280;8643;48.824;11.422;2023-04-23T01:10:07;96292.78;;;11.52;100.00
17054;BME280;8643;48.824;11.422;2023-04-23T01:12:38;96301.00;;;11.52;100.00
17054;BME280;8643;48.824;11.422;2023-04-23T01:15:08;96294.31;;;11.49;100.00
17054;BME280;8643;48.824;11.422;2023-04-23T01:17:37;96296.34;;;11.52;100.00
17054;BME280;8643;48.824;11.422;2023-04-23T01:20:07;96293.59;;;11.52;100.00
17054;BME280;8643;48.824;11.422;2023-04-23T01:22:38;96303.22;;;11.46;100.00
17054;BME280;8643;48.824;11.422;2023-04-23T01:25:08;96304.91;;;11.51;100.00
17054;BME280;8643;48.824;11.422;2023-04-23T01:27:37;96300.56;;;11.50;100.00
17054;BME280;8643;48.824;11.422;2023-04-23T01:30:07;96307.03;;;11.42;100.00
17054;BME280;8643;48.824;11.422;2023-04-23T01:32:37;96301.88;;;11.40;100.00
17054;BME280;8643;48.824;11.422;2023-04-23T01:35:09;96303.03;;;11.39;100.00
17054;BME280;8643;48.824;11.422;2023-04-23T01:37:42;96305.41;;;11.41;100.00
17054;BME280;8643;48.824;11.422;2023-04-23T01:40:11;96312.50;;;11.42;100.00
17054;BME280;8643;48.824;11.422;2023-04-23T01:42:40;96305.63;;;11.48;100.00
17054;BME280;8643;48.824;11.422;2023-04-23T01:45:09;96298.63;;;11.50;100.00
17054;BME280;8643;48.824;11.422;2023-04-23T01:47:38;96300.75;;;11.41;100.00
17054;BME280;8643;48.824;11.422;2023-04-23T01:50:08;96307.28;;;11.36;100.00
17054;BME280;8643;48.824;11.422;2023-04-23T01:52:37;96296.84;;;11.26;100.00
17054;BME280;8643;48.824;11.422;2023-04-23T01:55:08;96293.81;;;11.15;100.00
17054;BME280;8643;48.824;11.422;2023-04-23T01:57:37;96295.78;;;11.15;100.00
17054;BME280;8643;48.824;11.422;2023-04-23T02:00:08;96300.25;;;11.07;100.00
17054;BME280;8643;48.824;11.422;2023-04-23T02:02:42;96310.66;;;11.01;100.00
17054;BME280;8643;48.824;11.422;2023-04-23T02:05:13;96303.50;;;10.97;100.00
17054;BME280;8643;48.824;11.422;2023-04-23T02:07:43;96308.09;;;10.93;100.00
17054;BME280;8643;48.824;11.422;2023-04-23T02:10:15;96308.59;;;10.82;100.00
17054;BME280;8643;48.824;11.422;2023-04-23T02:12:45;96307.44;;;10.83;100.00
17054;BME280;8643;48.824;11.422;2023-04-23T02:15:14;96312.47;;;10.81;100.00
17054;BME280;8643;48.824;11.422;2023-04-23T02:17:43;96317.34;;;10.88;100.00
17054;BME280;8643;48.824;11.422;2023-04-23T02:20:12;96308.53;;;10.95;100.00
17054;BME280;8643;48.824;11.422;2023-04-23T02:22:42;96317.00;;;11.18;100.00
17054;BME280;8643;48.824;11.422;2023-04-23T02:25:11;96314.59;;;11.16;100.00
17054;BME280;8643;48.824;11.422;2023-04-23T02:27:43;96315.84;;;11.19;100.00
17054;BME280;8643;48.824;11.422;2023-04-23T02:30:12;96322.13;;;11.19;100.00
17054;BME280;8643;48.824;11.422;2023-04-23T02:32:41;96321.31;;;11.19;100.00
17054;BME280;8643;48.824;11.422;2023-04-23T02:35:10;96321.31;;;11.19;100.00
17054;BME280;8643;48.824;11.422;2023-04-23T02:37:40;96326.78;;;11.19;100.00
17054;BME280;8643;48.824;11.422;2023-04-23T02:40:09;96326.34;;;11.17;100.00
17054;BME280;8643;48.824;11.422;2023-04-23T02:42:38;96316.88;;;11.14;100.00
17054;BME280;8643;48.824;11.422;2023-04-23T02:45:11;96319.19;;;11.12;100.00
17054;BME280;8643;48.824;11.422;2023-04-23T02:47:40;96320.19;;;11.20;100.00
17054;BME280;8643;48.824;11.422;2023-04-23T02:50:09;96316.28;;;11.21;100.00
17054;BME280;8643;48.824;11.422;2023-04-23T02:52:38;96313.19;;;11.23;100.00
17054;BME280;8643;48.824;11.422;2023-04-23T02:55:07;96316.03;;;11.26;100.00
17054;BME280;8643;48.824;11.422;2023-04-23T02:57:37;96318.06;;;11.29;100.00
17054;BME280;8643;48.824;11.422;2023-04-23T03:00:07;96312.69;;;11.33;100.00
17054;BME280;8643;48.824;11.422;2023-04-23T03:02:42;96315.34;;;11.45;100.00
17054;BME280;8643;48.824;11.422;2023-04-23T03:05:11;96318.34;;;11.56;100.00
17054;BME280;8643;48.824;11.422;2023-04-23T03:07:41;96318.00;;;11.58;100.00
17054;BME280;8643;48.824;11.422;2023-04-23T03:10:10;96324.56;;;11.69;100.00
17054;BME280;8643;48.824;11.422;2023-04-23T03:12:39;96320.75;;;11.73;100.00
17054;BME280;8643;48.824;11.422;2023-04-23T03:15:09;96314.81;;;11.71;100.00
17054;BME280;8643;48.824;11.422;2023-04-23T03:17:38;96320.41;;;11.75;100.00
17054;BME280;8643;48.824;11.422;2023-04-23T03:20:09;96322.69;;;11.89;100.00
17054;BME280;8643;48.824;11.422;2023-04-23T03:22:39;96323.13;;;11.91;100.00
17054;BME280;8643;48.824;11.422;2023-04-23T03:25:08;96325.16;;;11.78;100.00
17054;BME280;8643;48.824;11.422;2023-04-23T03:27:38;96329.06;;;11.77;100.00
17054;BME280;8643;48.824;11.422;2023-04-23T03:30:08;96331.03;;;11.77;100.00
17054;BME280;8643;48.824;11.422;2023-04-23T03:32:37;96329.69;;;11.86;100.00
17054;BME280;8643;48.824;11.422;2023-04-23T03:35:08;96327.56;;;11.96;100.00
17054;BME280;8643;48.824;11.422;2023-04-23T03:37:41;96333.59;;;12.01;100.00
17054;BME280;8643;48.824;11.422;2023-04-23T03:40:10;96331.22;;;12.00;100.00
17054;BME280;8643;48.824;11.422;2023-04-23T03:42:41;96332.88;;;12.04;100.00
17054;BME280;8643;48.824;11.422;2023-04-23T03:45:13;96329.16;;;12.13;100.00
17054;BME280;8643;48.824;11.422;2023-04-23T03:47:43;96334.47;;;12.05;100.00
17054;BME280;8643;48.824;11.422;2023-04-23T03:50:14;96329.69;;;12.02;100.00
17054;BME280;8643;48.824;11.422;2023-04-23T03:52:46;96331.28;;;12.03;100.00
17054;BME280;8643;48.824;11.422;2023-04-23T03:55:29;96327.28;;;12.17;100.00
17054;BME280;8643;48.824;11.422;2023-04-23T03:57:58;96334.72;;;12.16;100.00
17054;BME280;8643;48.824;11.422;2023-04-23T04:00:36;96334.19;;;12.10;100.00
17054;BME280;8643;48.824;11.422;2023-04-23T04:03:05;96341.91;;;12.05;100.00
17054;BME280;8643;48.824;11.422;2023-04-23T04:05:36;96341.72;;;12.14;100.00
17054;BME280;8643;48.824;11.422;2023-04-23T04:08:04;96340.94;;;12.13;100.00
17054;BME280;8643;48.824;11.422;2023-04-23T04:10:33;96340.13;;;12.13;100.00
17054;BME280;8643;48.824;11.422;2023-04-23T04:13:03;96345.28;;;12.14;100.00
17054;BME280;8643;48.824;11.422;2023-04-23T04:15:32;96349.94;;;12.14;100.00
17054;BME280;8643;48.824;11.422;2023-04-23T04:18:00;96346.22;;;12.06;100.00
17054;BME280;8643;48.824;11.422;2023-04-23T04:20:29;96353.59;;;12.02;100.00
17054;BME280;8643;48.824;11.422;2023-04-23T04:22:59;96365.53;;;11.94;100.00
17054;BME280;8643;48.824;11.422;2023-04-23T04:25:28;96357.19;;;11.90;100.00
17054;BME280;8643;48.824;11.422;2023-04-23T04:27:56;96366.13;;;11.87;100.00
17054;BME280;8643;48.824;11.422;2023-04-23T04:30:25;96369.41;;;11.77;100.00
17054;BME280;8643;48.824;11.422;2023-04-23T04:32:54;96375.25;;;11.75;100.00
17054;BME280;8643;48.824;11.422;2023-04-23T04:35:23;96382.22;;;11.56;100.00
17054;BME280;8643;48.824;11.422;2023-04-23T04:37:52;96372.81;;;11.42;100.00
17054;BME280;8643;48.824;11.422;2023-04-23T04:40:23;96370.94;;;11.30;100.00
17054;BME280;8643;48.824;11.422;2023-04-23T04:42:52;96368.25;;;11.17;100.00
17054;BME280;8643;48.824;11.422;2023-04-23T04:45:21;96382.91;;;11.09;100.00
17054;BME280;8643;48.824;11.422;2023-04-23T04:47:52;96383.59;;;11.06;100.00
17054;BME280;8643;48.824;11.422;2023-04-23T04:50:20;96388.72;;;11.08;100.00
17054;BME280;8643;48.824;11.422;2023-04-23T04:52:49;96380.09;;;10.93;100.00
17054;BME280;8643;48.824;11.422;2023-04-23T04:55:18;96386.91;;;10.99;100.00
17054;BME280;8643;48.824;11.422;2023-04-23T04:57:48;96384.63;;;11.01;100.00
17054;BME280;8643;48.824;11.422;2023-04-23T05:00:24;96401.44;;;11.00;100.00
17054;BME280;8643;48.824;11.422;2023-04-23T05:02:56;96390.94;;;10.90;100.00
17054;BME280;8643;48.824;11.422;2023-04-23T05:05:26;96395.31;;;10.78;100.00
17054;BME280;8643;48.824;11.422;2023-04-23T05:07:55;96400.44;;;10.80;100.00
17054;BME280;8643;48.824;11.422;2023-04-23T05:10:28;96401.72;;;10.82;100.00
17054;BME280;8643;48.824;11.422;2023-04-23T05:12:59;96410.84;;;10.74;100.00
17054;BME280;8643;48.824;11.422;2023-04-23T05:15:28;96405.53;;;10.53;100.00
17054;BME280;8643;48.824;11.422;2023-04-23T05:17:57;96408.28;;;10.53;100.00
17054;BME280;8643;48.824;11.422;2023-04-23T05:20:25;96413.28;;;10.51;100.00
17054;BME280;8643;48.824;11.422;2023-04-23T05:22:54;96415.69;;;10.53;100.00
17054;BME280;8643;48.824;11.422;2023-04-23T05:25:23;96417.06;;;10.47;100.00
17054;BME280;8643;48.824;11.422;2023-04-23T05:27:52;96422.53;;;10.47;100.00
17054;BME280;8643;48.824;11.422;2023-04-23T05:30:22;96418.63;;;10.48;100.00
17054;BME280;8643;48.824;11.422;2023-04-23T05:32:50;96423.22;;;10.43;100.00
17054;BME280;8643;48.824;11.422;2023-04-23T05:35:19;96427.66;;;10.36;100.00
17054;BME280;8643;48.824;11.422;2023-04-23T05:37:48;96428.66;;;10.31;100.00
17054;BME280;8643;48.824;11.422;2023-04-23T05:40:17;96429.47;;;10.32;100.00
17054;BME280;8643;48.824;11.422;2023-04-23T05:42:46;96429.94;;;10.34;100.00
17054;BME280;8643;48.824;11.422;2023-04-23T05:45:15;96430.84;;;10.25;100.00
17054;BME280;8643;48.824;11.422;2023-04-23T05:47:45;96431.38;;;10.31;100.00
17054;BME280;8643;48.824;11.422;2023-04-23T05:50:14;96436.88;;;10.31;100.00
17054;BME280;8643;48.824;11.422;2023-04-23T05:52:42;96429.59;;;10.35;100.00
17054;BME280;8643;48.824;11.422;2023-04-23T05:55:11;96430.84;;;10.50;100.00
17054;BME280;8643;48.824;11.422;2023-04-23T05:57:41;96435.41;;;10.46;100.00
17054;BME280;8643;48.824;11.422;2023-04-23T06:00:11;96449.31;;;10.41;100.00
17054;BME280;8643;48.824;11.422;2023-04-23T06:02:40;96449.28;;;10.16;100.00
17054;BME280;8643;48.824;11.422;2023-04-23T06:05:10;96442.00;;;10.08;100.00
17054;BME280;8643;48.824;11.422;2023-04-23T06:07:40;96445.66;;;10.12;100.00
17054;BME280;8643;48.824;11.422;2023-04-23T06:10:10;96453.97;;;10.28;100.00
17054;BME280;8643;48.824;11.422;2023-04-23T06:12:39;96451.13;;;10.12;100.00
17054;BME280;8643;48.824;11.422;2023-04-23T06:15:09;96451.00;;;10.21;100.00
17054;BME280;8643;48.824;11.422;2023-04-23T06:17:38;96453.84;;;10.24;100.00
17054;BME280;8643;48.824;11.422;2023-04-23T06:20:07;96449.56;;;10.36;100.00
17054;BME280;8643;48.824;11.422;2023-04-23T06:22:39;96446.72;;;10.32;100.00
17054;BME280;8643;48.824;11.422;2023-04-23T06:25:08;96448.97;;;10.30;100.00
17054;BME280;8643;48.824;11.422;2023-04-23T06:27:37;96452.88;;;10.41;100.00
17054;BME280;8643;48.824;11.422;2023-04-23T06:30:13;96442.13;;;10.36;100.00
17054;BME280;8643;48.824;11.422;2023-04-23T06:32:43;96435.28;;;10.42;100.00
17054;BME280;8643;48.824;11.422;2023-04-23T06:35:12;96435.97;;;10.52;100.00
17054;BME280;8643;48.824;11.422;2023-04-23T06:37:42;96442.00;;;10.57;100.00
17054;BME280;8643;48.824;11.422;2023-04-23T06:40:11;96437.78;;;10.48;100.00
17054;BME280;8643;48.824;11.422;2023-04-23T06:42:39;96447.47;;;10.57;100.00
17054;BME280;8643;48.824;11.422;2023-04-23T06:45:13;96438.81;;;10.55;100.00
17054;BME280;8643;48.824;11.422;2023-04-23T06:47:42;96443.84;;;10.53;100.00
17054;BME280;8643;48.824;11.422;2023-04-23T06:50:11;96447.03;;;10.68;100.00
17054;BME280;8643;48.824;11.422;2023-04-23T06:52:41;96447.06;;;10.43;100.00
17054;BME280;8643;48.824;11.422;2023-04-23T06:55:10;96449.56;;;10.48;100.00
17054;BME280;8643;48.824;11.422;2023-04-23T06:57:39;96440.66;;;10.39;100.00
17054;BME280;8643;48.824;11.422;2023-04-23T07:00:10;96445.31;;;10.26;100.00
17054;BME280;8643;48.824;11.422;2023-04-23T07:02:41;96442.69;;;10.17;100.00
17054;BME280;8643;48.824;11.422;2023-04-23T07:05:10;96436.19;;;10.22;100.00
17054;BME280;8643;48.824;11.422;2023-04-23T07:07:40;96430.94;;;10.17;100.00
17054;BME280;8643;48.824;11.422;2023-04-23T07:10:10;96431.50;;;10.10;100.00
17054;BME280;8643;48.824;11.422;2023-04-23T07:12:43;96436.06;;;10.06;100.00
17054;BME280;8643;48.824;11.422;2023-04-23T07:15:12;96432.50;;;10.05;100.00
17054;BME280;8643;48.824;11.422;2023-04-23T07:17:40;96426.16;;;10.14;100.00
17054;BME280;8643;48.824;11.422;2023-04-23T07:20:09;96428.66;;;10.19;100.00
17054;BME280;8643;48.824;11.422;2023-04-23T07:22:38;96425.38;;;10.25;100.00
17054;BME280;8643;48.824;11.422;2023-04-23T07:25:09;96430.25;;;10.20;100.00
17054;BME280;8643;48.824;11.422;2023-04-23T07:27:38;96426.28;;;10.17;100.00
17054;BME280;8643;48.824;11.422;2023-04-23T07:30:07;96426.28;;;10.17;100.00
17054;BME280;8643;48.824;11.422;2023-04-23T07:32:36;96424.19;;;10.26;100.00
17054;BME280;8643;48.824;11.422;2023-04-23T07:35:06;96423.53;;;10.30;100.00
17054;BME280;8643;48.824;11.422;2023-04-23T07:37:36;96426.44;;;10.33;100.00
17054;BME280;8643;48.824;11.422;2023-04-23T07:40:08;96422.97;;;10.36;100.00
17054;BME280;8643;48.824;11.422;2023-04-23T07:42:37;96432.13;;;10.40;100.00
17054;BME280;8643;48.824;11.422;2023-04-23T07:45:06;96432.47;;;10.51;100.00
17054;BME280;8643;48.824;11.422;2023-04-23T07:47:35;96427.63;;;10.60;100.00
17054;BME280;8643;48.824;11.422;2023-04-23T07:50:04;96429.44;;;10.69;100.00
17054;BME280;8643;48.824;11.422;2023-04-23T07:52:33;96427.06;;;10.67;100.00
17054;BME280;8643;48.824;11.422;2023-04-23T07:55:02;96422.25;;;10.64;100.00
17054;BME280;8643;48.824;11.422;2023-04-23T07:57:32;96422.41;;;10.68;100.00
17054;BME280;8643;48.824;11.422;2023-04-23T08:00:01;96424.06;;;10.72;100.00
17054;BME280;8643;48.824;11.422;2023-04-23T08:02:37;96427.75;;;10.64;100.00
17054;BME280;8643;48.824;11.422;2023-04-23T08:05:07;96421.47;;;10.76;100.00
17054;BME280;8643;48.824;11.422;2023-04-23T08:07:36;96417.69;;;10.80;100.00
17054;BME280;8643;48.824;11.422;2023-04-23T08:10:05;96413.50;;;10.71;100.00
17054;BME280;8643;48.824;11.422;2023-04-23T08:12:35;96413.44;;;10.83;100.00
17054;BME280;8643;48.824;11.422;2023-04-23T08:15:05;96404.75;;;10.93;100.00
17054;BME280;8643;48.824;11.422;2023-04-23T08:17:38;96398.72;;;11.16;100.00
17054;BME280;8643;48.824;11.422;2023-04-23T08:20:08;96396.59;;;11.37;100.00
17054;BME280;8643;48.824;11.422;2023-04-23T08:22:37;96396.69;;;11.41;100.00
17054;BME280;8643;48.824;11.422;2023-04-23T08:25:06;96395.44;;;11.38;100.00
17054;BME280;8643;48.824;11.422;2023-04-23T08:27:37;96397.94;;;11.44;100.00
17054;BME280;8643;48.824;11.422;2023-04-23T08:30:07;96391.13;;;11.09;100.00
17054;BME280;8643;48.824;11.422;2023-04-23T08:32:37;96390.72;;;11.23;100.00
17054;BME280;8643;48.824;11.422;2023-04-23T08:35:07;96390.16;;;11.46;100.00
17054;BME280;8643;48.824;11.422;2023-04-23T08:37:35;96386.72;;;11.65;100.00
17054;BME280;8643;48.824;11.422;2023-04-23T08:40:06;96385.31;;;11.71;100.00
17054;BME280;8643;48.824;11.422;2023-04-23T08:42:42;96389.09;;;11.95;100.00
17054;BME280;8643;48.824;11.422;2023-04-23T08:45:13;96389.88;;;12.11;100.00
17054;BME280;8643;48.824;11.422;2023-04-23T08:47:42;96392.34;;;12.16;100.00
17054;BME280;8643;48.824;11.422;2023-04-23T08:50:13;96398.00;;;12.23;100.00
17054;BME280;8643;48.824;11.422;2023-04-23T08:52:49;96395.25;;;12.23;100.00
17054;BME280;8643;48.824;11.422;2023-04-23T08:55:18;96386.69;;;12.09;100.00
17054;BME280;8643;48.824;11.422;2023-04-23T08:57:49;96390.41;;;12.17;100.00
17054;BME280;8643;48.824;11.422;2023-04-23T09:00:19;96396.94;;;12.12;100.00
17054;BME280;8643;48.824;11.422;2023-04-23T09:02:49;96400.66;;;12.36;100.00
17054;BME280;8643;48.824;11.422;2023-04-23T09:05:18;96400.38;;;12.41;100.00
17054;BME280;8643;48.824;11.422;2023-04-23T09:07:47;96393.41;;;12.43;100.00
17054;BME280;8643;48.824;11.422;2023-04-23T09:10:15;96398.28;;;12.18;100.00
17054;BME280;8643;48.824;11.422;2023-04-23T09:12:45;96387.56;;;12.13;100.00
17054;BME280;8643;48.824;11.422;2023-04-23T09:15:16;96387.81;;;12.75;100.00
17054;BME280;8643;48.824;11.422;2023-04-23T09:17:46;96382.75;;;12.97;100.00
17054;BME280;8643;48.824;11.422;2023-04-23T09:20:16;96383.47;;;12.94;100.00
17054;BME280;8643;48.824;11.422;2023-04-23T09:22:46;96378.16;;;13.20;100.00
17054;BME280;8643;48.824;11.422;2023-04-23T09:25:16;96374.63;;;13.40;100.00
17054;BME280;8643;48.824;11.422;2023-04-23T09:27:46;96379.94;;;13.13;100.00
17054;BME280;8643;48.824;11.422;2023-04-23T09:30:17;96380.97;;;13.05;100.00
17054;BME280;8643;48.824;11.422;2023-04-23T09:32:46;96373.66;;;13.32;100.00
17054;BME280;8643;48.824;11.422;2023-04-23T09:35:17;96374.75;;;13.47;100.00
17054;BME280;8643;48.824;11.422;2023-04-23T09:37:49;96376.72;;;13.46;100.00
17054;BME280;8643;48.824;11.422;2023-04-23T09:40:22;96378.09;;;12.97;100.00
17054;BME280;8643;48.824;11.422;2023-04-23T09:42:52;96383.59;;;12.62;100.00
17054;BME280;8643;48.824;11.422;2023-04-23T09:45:23;96387.44;;;12.77;100.00
17054;BME280;8643;48.824;11.422;2023-04-23T09:47:53;96386.84;;;12.32;100.00
17054;BME280;8643;48.824;11.422;2023-04-23T09:50:32;96378.56;;;12.48;100.00
17054;BME280;8643;48.824;11.422;2023-04-23T09:53:01;96381.00;;;12.69;100.00
17054;BME280;8643;48.824;11.422;2023-04-23T09:55:32;96385.47;;;13.32;100.00
17054;BME280;8643;48.824;11.422;2023-04-23T09:58:06;96395.13;;;13.65;100.00
17054;BME280;8643;48.824;11.422;2023-04-23T10:00:40;96395.22;;;13.92;100.00
17054;BME280;8643;48.824;11.422;2023-04-23T10:03:09;96390.88;;;13.29;100.00
17054;BME280;8643;48.824;11.422;2023-04-23T10:05:40;96383.81;;;13.70;100.00
17054;BME280;8643;48.824;11.422;2023-04-23T10:08:27;96383.78;;;14.13;100.00
17054;BME280;8643;48.824;11.422;2023-04-23T10:10:56;96387.41;;;14.44;100.00
17054;BME280;8643;48.824;11.422;2023-04-23T10:13:45;96380.13;;;14.85;100.00
17054;BME280;8643;48.824;11.422;2023-04-23T10:16:16;96381.88;;;14.44;100.00
17054;BME280;8643;48.824;11.422;2023-04-23T10:18:54;96388.31;;;14.28;100.00
17054;BME280;8643;48.824;11.422;2023-04-23T10:21:25;96380.47;;;14.80;100.00
17054;BME280;8643;48.824;11.422;2023-04-23T10:24:13;96377.91;;;14.68;100.00
17054;BME280;8643;48.824;11.422;2023-04-23T10:26:47;96372.16;;;15.79;100.00
17054;BME280;8643;48.824;11.422;2023-04-23T10:29:20;96369.06;;;16.91;100.00
17054;BME280;8643;48.824;11.422;2023-04-23T10:31:54;96367.53;;;17.04;100.00
17054;BME280;8643;48.824;11.422;2023-04-23T10:34:25;96370.94;;;16.80;100.00
17054;BME280;8643;48.824;11.422;2023-04-23T10:36:55;96361.78;;;16.68;100.00
17054;BME280;8643;48.824;11.422;2023-04-23T10:39:27;96357.22;;;16.31;100.00
17054;BME280;8643;48.824;11.422;2023-04-23T10:41:58;96357.91;;;16.18;100.00
17054;BME280;8643;48.824;11.422;2023-04-23T10:44:36;96357.47;;;16.12;100.00
17054;BME280;8643;48.824;11.422;2023-04-23T10:47:14;96356.72;;;16.15;100.00
17054;BME280;8643;48.824;11.422;2023-04-23T10:49:43;96346.69;;;16.48;100.00
17054;BME280;8643;48.824;11.422;2023-04-23T10:52:13;96341.09;;;16.41;100.00
17054;BME280;8643;48.824;11.422;2023-04-23T10:54:56;96348.06;;;16.83;100.00
17054;BME280;8643;48.824;11.422;2023-04-23T10:57:26;96333.81;;;16.74;100.00
17054;BME280;8643;48.824;11.422;2023-04-23T10:59:55;96332.47;;;17.30;100.00
17054;BME280;8643;48.824;11.422;2023-04-23T11:02:42;96319.47;;;17.38;100.00
17054;BME280;8643;48.824;11.422;2023-04-23T11:05:11;96321.44;;;17.37;100.00
17054;BME280;8643;48.824;11.422;2023-04-23T11:07:41;96317.44;;;17.24;100.00
17054;BME280;8643;48.824;11.422;2023-04-23T11:10:14;96316.66;;;17.27;96.16
17054;BME280;8643;48.824;11.422;2023-04-23T11:12:43;96311.50;;;17.15;94.96
17054;BME280;8643;48.824;11.422;2023-04-23T11:15:14;96322.66;;;17.58;97.96
17054;BME280;8643;48.824;11.422;2023-04-23T11:17:59;96312.44;;;18.12;100.00
17054;BME280;8643;48.824;11.422;2023-04-23T11:20:29;96318.28;;;17.43;98.04
17054;BME280;8643;48.824;11.422;2023-04-23T11:22:58;96309.59;;;17.40;92.55
17054;BME280;8643;48.824;11.422;2023-04-23T11:25:27;96300.97;;;16.68;97.05
17054;BME280;8643;48.824;11.422;2023-04-23T11:27:57;96297.16;;;16.91;100.00
17054;BME280;8643;48.824;11.422;2023-04-23T11:30:28;96302.56;;;17.90;100.00
17054;BME280;8643;48.824;11.422;2023-04-23T11:32:58;96291.41;;;18.55;93.00
17054;BME280;8643;48.824;11.422;2023-04-23T11:35:29;96290.53;;;18.79;89.31
17054;BME280;8643;48.824;11.422;2023-04-23T11:38:08;96283.50;;;18.42;85.92
17054;BME280;8643;48.824;11.422;2023-04-23T11:40:37;96289.09;;;17.95;95.46
17054;BME280;8643;48.824;11.422;2023-04-23T11:43:07;96288.22;;;17.45;99.24
17054;BME280;8643;48.824;11.422;2023-04-23T11:45:36;96291.03;;;17.55;92.79
17054;BME280;8643;48.824;11.422;2023-04-23T11:48:06;96287.09;;;17.78;88.06
17054;BME280;8643;48.824;11.422;2023-04-23T11:50:36;96279.13;;;17.26;92.07
17054;BME280;8643;48.824;11.422;2023-04-23T11:53:06;96275.38;;;16.79;92.52
17054;BME280;8643;48.824;11.422;2023-04-23T11:55:36;96277.72;;;16.77;96.07
17054;BME280;8643;48.824;11.422;2023-04-23T11:58:10;96270.03;;;17.40;90.54
17054;BME280;8643;48.824;11.422;2023-04-23T12:00:38;96271.50;;;16.94;95.86
17054;BME280;8643;48.824;11.422;2023-04-23T12:03:07;96265.31;;;17.51;96.22
17054;BME280;8643;48.824;11.422;2023-04-23T12:05:40;96262.47;;;18.56;90.05
17054;BME280;8643;48.824;11.422;2023-04-23T12:08:11;96260.13;;;19.42;81.12
17054;BME280;8643;48.824;11.422;2023-04-23T12:10:47;96250.53;;;19.54;83.57
17054;BME280;8643;48.824;11.422;2023-04-23T12:13:17;96258.44;;;18.78;88.02
17054;BME280;8643;48.824;11.422;2023-04-23T12:15:47;96249.44;;;18.45;89.58
17054;BME280;8643;48.824;11.422;2023-04-23T12:18:17;96248.28;;;18.28;89.30
17054;BME280;8643;48.824;11.422;2023-04-23T12:20:47;96248.19;;;18.68;83.24
17054;BME280;8643;48.824;11.422;2023-04-23T12:23:16;96237.94;;;18.50;86.22
17054;BME280;8643;48.824;11.422;2023-04-23T12:25:45;96235.13;;;20.37;74.14
17054;BME280;8643;48.824;11.422;2023-04-23T12:28:13;96241.31;;;21.75;70.97
17054;BME280;8643;48.824;11.422;2023-04-23T12:30:43;96224.94;;;20.95;72.58
17054;BME280;8643;48.824;11.422;2023-04-23T12:33:12;96224.03;;;19.91;77.64
17054;BME280;8643;48.824;11.422;2023-04-23T12:35:42;96220.09;;;19.36;78.57
17054;BME280;8643;48.824;11.422;2023-04-23T12:38:22;96214.91;;;18.68;85.54
17054;BME280;8643;48.824;11.422;2023-04-23T12:40:51;96211.66;;;19.54;85.98
17054;BME280;8643;48.824;11.422;2023-04-23T12:43:20;96207.50;;;20.91;72.96
17054;BME280;8643;48.824;11.422;2023-04-23T12:45:49;96206.53;;;22.07;84.15
17054;BME280;8643;48.824;11.422;2023-04-23T12:48:18;96205.41;;;22.24;67.34
17054;BME280;8643;48.824;11.422;2023-04-23T12:50:47;96211.56;;;22.39;69.45
17054;BME280;8643;48.824;11.422;2023-04-23T12:53:18;96202.56;;;22.28;65.56
17054;BME280;8643;48.824;11.422;2023-04-23T12:55:48;96207.72;;;22.89;68.30
17054;BME280;8643;48.824;11.422;2023-04-23T12:58:16;96194.84;;;22.96;71.73
17054;BME280;8643;48.824;11.422;2023-04-23T13:00:45;96193.09;;;22.85;62.10
17054;BME280;8643;48.824;11.422;2023-04-23T13:03:14;96182.78;;;22.82;61.59
17054;BME280;8643;48.824;11.422;2023-04-23T13:05:44;96178.44;;;22.61;67.21